createdAt,value
2018-05-24T00:00:01.498Z,1024.42
2018-05-24T00:06:01.535Z,1024.36
2018-05-24T00:16:01.557Z,1024.35
2018-05-24T00:21:01.390Z,1024.35
2018-05-24T00:26:01.492Z,1024.37
2018-05-24T00:31:01.386Z,1024.37
2018-05-24T00:36:01.521Z,1024.42
2018-05-24T00:51:01.445Z,1024.34
2018-05-24T01:06:01.623Z,1024.47
2018-05-24T01:11:01.453Z,1024.47
2018-05-24T01:21:01.506Z,1024.44
2018-05-24T01:36:01.515Z,1024.62
2018-05-24T01:41:01.531Z,1024.62
2018-05-24T01:47:01.517Z,1024.67
2018-05-24T01:52:01.545Z,1024.75
2018-05-24T02:02:01.527Z,1024.79
2018-05-24T02:07:01.548Z,1024.79
2018-05-24T02:12:01.627Z,1024.83
2018-05-24T02:17:01.565Z,1024.83
2018-05-24T02:22:01.672Z,1024.86
2018-05-24T02:32:01.402Z,1024.81
2018-05-24T02:47:01.576Z,1024.85
2018-05-24T02:57:01.600Z,1024.81
2018-05-24T03:02:01.546Z,1024.79
2018-05-24T03:07:01.534Z,1024.79
2018-05-24T03:12:01.562Z,1024.75
2018-05-24T03:17:01.572Z,1024.75
2018-05-24T03:22:01.564Z,1024.73
2018-05-24T03:32:01.532Z,1024.72
2018-05-24T03:43:01.537Z,1024.68
2018-05-24T03:53:01.578Z,1024.74
2018-05-24T04:08:01.574Z,1024.66
2018-05-24T04:13:01.600Z,1024.66
2018-05-24T04:18:01.538Z,1024.66
2018-05-24T04:23:01.539Z,1024.64
2018-05-24T04:28:01.539Z,1024.64
2018-05-24T04:33:01.827Z,1024.5
2018-05-24T04:38:01.368Z,1024.5
2018-05-24T04:43:01.624Z,1024.41
2018-05-24T04:48:01.542Z,1024.41
2018-05-24T04:53:01.567Z,1024.52
2018-05-24T04:58:01.566Z,1024.52
2018-05-24T05:03:01.576Z,1024.44
2018-05-24T05:08:01.596Z,1024.44
2018-05-24T05:13:01.573Z,1024.45
2018-05-24T05:18:01.558Z,1024.45
2018-05-24T05:23:01.778Z,1024.5
2018-05-24T05:28:01.562Z,1024.5
2018-05-24T05:33:01.529Z,1024.55
2018-05-24T05:38:01.622Z,1024.55
2018-05-24T05:43:01.554Z,1024.48
2018-05-24T05:48:01.582Z,1024.48
2018-05-24T05:53:01.603Z,1024.5
2018-05-24T05:58:01.448Z,1024.5
2018-05-24T06:03:01.450Z,1024.51
2018-05-24T06:08:01.453Z,1024.51
2018-05-24T06:13:01.538Z,1024.57
2018-05-24T06:18:01.442Z,1024.57
2018-05-24T06:23:01.415Z,1024.68
2018-05-24T06:28:01.433Z,1024.68
2018-05-24T06:33:01.456Z,1024.5
2018-05-24T06:43:01.601Z,1024.59
2018-05-24T06:58:01.572Z,1024.54
2018-05-24T07:08:01.537Z,1024.58
2018-05-24T07:13:01.575Z,1024.62
2018-05-24T07:23:01.414Z,1024.68
2018-05-24T07:28:01.406Z,1024.68
2018-05-24T07:33:01.429Z,1024.66
2018-05-24T07:38:01.397Z,1024.66
2018-05-24T07:43:01.479Z,1024.66
2018-05-24T07:48:01.351Z,1024.66
2018-05-24T07:53:01.615Z,1024.66
2018-05-24T07:58:01.384Z,1024.66
2018-05-24T08:03:01.421Z,1024.67
2018-05-24T08:08:01.441Z,1024.67
2018-05-24T08:13:01.576Z,1024.67
2018-05-24T08:24:01.509Z,1024.59
2018-05-24T08:29:01.422Z,1024.59
2018-05-24T08:34:01.558Z,1024.77
2018-05-24T08:39:01.441Z,1024.77
2018-05-24T08:49:01.303Z,1024.74
2018-05-24T08:59:01.543Z,1024.7
2018-05-24T09:14:01.624Z,1024.59
2018-05-24T09:24:01.533Z,1024.69
2018-05-24T09:29:01.433Z,1024.69
2018-05-24T09:34:01.503Z,1024.63
2018-05-24T09:39:01.426Z,1024.63
2018-05-24T09:45:01.661Z,1024.61
2018-05-24T10:00:01.633Z,1024.61
2018-05-24T10:15:01.715Z,1024.45
2018-05-24T10:25:01.660Z,1024.35
2018-05-24T10:30:01.581Z,1024.35
2018-05-24T10:35:01.410Z,1024.26
2018-05-24T10:40:01.509Z,1024.26
2018-05-24T10:45:01.544Z,1024.21
2018-05-24T10:50:01.518Z,1024.21
2018-05-24T10:55:01.405Z,1024.3
2018-05-24T11:00:01.678Z,1024.3
2018-05-24T11:05:01.414Z,1024.31
2018-05-24T12:48:23.072Z,1023.55
2018-05-24T13:29:19.572Z,1023.0
